sensor_id;sensor_type;location;lat;lon;timestamp;temperature;humidity
20648;DHT22;10483;44.646;10.924;2022-07-06T00:02:12;29.20;99.90
20648;DHT22;10483;44.646;10.924;2022-07-06T00:04:39;29.20;99.90
20648;DHT22;10483;44.646;10.924;2022-07-06T00:07:06;29.20;99.90
20648;DHT22;10483;44.646;10.924;2022-07-06T00:09:33;29.10;99.90
20648;DHT22;10483;44.646;10.924;2022-07-06T00:12:00;29.10;99.90
20648;DHT22;10483;44.646;10.924;2022-07-06T00:14:27;29.00;99.90
20648;DHT22;10483;44.646;10.924;2022-07-06T00:16:53;29.00;99.90
20648;DHT22;10483;44.646;10.924;2022-07-06T00:19:20;28.90;99.90
20648;DHT22;10483;44.646;10.924;2022-07-06T00:21:46;28.80;99.90
20648;DHT22;10483;44.646;10.924;2022-07-06T00:24:13;28.90;99.90
20648;DHT22;10483;44.646;10.924;2022-07-06T00:26:40;28.80;99.90
20648;DHT22;10483;44.646;10.924;2022-07-06T00:29:06;28.80;99.90
20648;DHT22;10483;44.646;10.924;2022-07-06T00:31:33;28.80;99.90
20648;DHT22;10483;44.646;10.924;2022-07-06T00:34:00;28.80;99.90
20648;DHT22;10483;44.646;10.924;2022-07-06T00:36:26;28.90;99.90
20648;DHT22;10483;44.646;10.924;2022-07-06T00:38:53;28.90;99.90
20648;DHT22;10483;44.646;10.924;2022-07-06T00:41:20;28.90;99.90
20648;DHT22;10483;44.646;10.924;2022-07-06T00:43:49;28.80;99.90
20648;DHT22;10483;44.646;10.924;2022-07-06T00:46:17;28.80;99.90
20648;DHT22;10483;44.646;10.924;2022-07-06T00:48:44;28.80;99.90
20648;DHT22;10483;44.646;10.924;2022-07-06T00:51:11;28.80;99.90
20648;DHT22;10483;44.646;10.924;2022-07-06T00:53:38;28.80;99.90
20648;DHT22;10483;44.646;10.924;2022-07-06T00:56:06;28.80;99.90
20648;DHT22;10483;44.646;10.924;2022-07-06T00:58:33;28.80;99.90
20648;DHT22;10483;44.646;10.924;2022-07-06T01:01:00;28.80;99.90
20648;DHT22;10483;44.646;10.924;2022-07-06T01:03:26;28.80;99.90
20648;DHT22;10483;44.646;10.924;2022-07-06T01:05:54;28.90;99.90
20648;DHT22;10483;44.646;10.924;2022-07-06T01:08:20;28.80;99.90
20648;DHT22;10483;44.646;10.924;2022-07-06T01:10:48;28.90;99.90
20648;DHT22;10483;44.646;10.924;2022-07-06T01:13:14;28.80;99.90
20648;DHT22;10483;44.646;10.924;2022-07-06T01:15:41;28.90;99.90
20648;DHT22;10483;44.646;10.924;2022-07-06T01:18:10;28.80;99.90
20648;DHT22;10483;44.646;10.924;2022-07-06T01:20:38;28.80;99.90
20648;DHT22;10483;44.646;10.924;2022-07-06T01:23:04;28.70;99.90
20648;DHT22;10483;44.646;10.924;2022-07-06T01:25:31;28.70;99.90
20648;DHT22;10483;44.646;10.924;2022-07-06T01:27:58;28.60;99.90
20648;DHT22;10483;44.646;10.924;2022-07-06T01:30:25;28.50;99.90
20648;DHT22;10483;44.646;10.924;2022-07-06T01:32:51;28.50;99.90
20648;DHT22;10483;44.646;10.924;2022-07-06T01:35:19;28.50;99.90
20648;DHT22;10483;44.646;10.924;2022-07-06T01:37:46;28.40;99.90
20648;DHT22;10483;44.646;10.924;2022-07-06T01:40:12;28.40;99.90
20648;DHT22;10483;44.646;10.924;2022-07-06T01:42:39;28.30;99.90
20648;DHT22;10483;44.646;10.924;2022-07-06T01:45:07;28.30;99.90
20648;DHT22;10483;44.646;10.924;2022-07-06T01:47:34;28.30;99.90
20648;DHT22;10483;44.646;10.924;2022-07-06T01:50:04;28.20;99.90
20648;DHT22;10483;44.646;10.924;2022-07-06T01:52:31;28.20;99.90
20648;DHT22;10483;44.646;10.924;2022-07-06T01:54:57;28.20;99.90
20648;DHT22;10483;44.646;10.924;2022-07-06T01:57:24;28.30;99.90
20648;DHT22;10483;44.646;10.924;2022-07-06T01:59:51;28.20;99.90
20648;DHT22;10483;44.646;10.924;2022-07-06T02:02:17;28.20;99.90
20648;DHT22;10483;44.646;10.924;2022-07-06T02:04:44;28.30;99.90
20648;DHT22;10483;44.646;10.924;2022-07-06T02:07:11;28.20;99.90
20648;DHT22;10483;44.646;10.924;2022-07-06T02:09:37;28.20;99.90
20648;DHT22;10483;44.646;10.924;2022-07-06T02:12:05;28.10;99.90
20648;DHT22;10483;44.646;10.924;2022-07-06T02:14:31;28.10;99.90
20648;DHT22;10483;44.646;10.924;2022-07-06T02:16:58;28.00;99.90
20648;DHT22;10483;44.646;10.924;2022-07-06T02:19:25;28.00;99.90
20648;DHT22;10483;44.646;10.924;2022-07-06T02:21:51;27.90;99.90
20648;DHT22;10483;44.646;10.924;2022-07-06T02:24:18;27.90;99.90
20648;DHT22;10483;44.646;10.924;2022-07-06T02:26:44;27.90;99.90
20648;DHT22;10483;44.646;10.924;2022-07-06T02:29:11;27.80;99.90
20648;DHT22;10483;44.646;10.924;2022-07-06T02:31:38;27.70;99.90
20648;DHT22;10483;44.646;10.924;2022-07-06T02:34:04;27.60;99.90
20648;DHT22;10483;44.646;10.924;2022-07-06T02:36:31;27.50;99.90
20648;DHT22;10483;44.646;10.924;2022-07-06T02:38:57;27.40;99.90
20648;DHT22;10483;44.646;10.924;2022-07-06T02:41:24;27.40;99.90
20648;DHT22;10483;44.646;10.924;2022-07-06T02:43:51;27.40;99.90
20648;DHT22;10483;44.646;10.924;2022-07-06T02:46:17;27.40;99.90
20648;DHT22;10483;44.646;10.924;2022-07-06T02:48:44;27.40;99.90
20648;DHT22;10483;44.646;10.924;2022-07-06T02:51:10;27.40;99.90
20648;DHT22;10483;44.646;10.924;2022-07-06T02:53:37;27.30;99.90
20648;DHT22;10483;44.646;10.924;2022-07-06T02:56:04;27.30;99.90
20648;DHT22;10483;44.646;10.924;2022-07-06T02:58:30;27.30;99.90
20648;DHT22;10483;44.646;10.924;2022-07-06T03:00:57;27.30;99.90
20648;DHT22;10483;44.646;10.924;2022-07-06T03:03:24;27.30;99.90
20648;DHT22;10483;44.646;10.924;2022-07-06T03:05:50;27.30;99.90
20648;DHT22;10483;44.646;10.924;2022-07-06T03:08:17;27.30;99.90
20648;DHT22;10483;44.646;10.924;2022-07-06T03:10:44;27.30;99.90
20648;DHT22;10483;44.646;10.924;2022-07-06T03:13:10;27.30;99.90
20648;DHT22;10483;44.646;10.924;2022-07-06T03:15:37;27.30;99.90
20648;DHT22;10483;44.646;10.924;2022-07-06T03:18:03;27.30;99.90
20648;DHT22;10483;44.646;10.924;2022-07-06T03:20:30;27.30;99.90
20648;DHT22;10483;44.646;10.924;2022-07-06T03:22:56;27.20;99.90
20648;DHT22;10483;44.646;10.924;2022-07-06T03:25:23;27.20;99.90
20648;DHT22;10483;44.646;10.924;2022-07-06T03:27:50;27.20;99.90
20648;DHT22;10483;44.646;10.924;2022-07-06T03:30:16;27.20;99.90
20648;DHT22;10483;44.646;10.924;2022-07-06T03:32:43;27.20;99.90
20648;DHT22;10483;44.646;10.924;2022-07-06T03:35:09;27.20;99.90
20648;DHT22;10483;44.646;10.924;2022-07-06T03:37:36;27.20;99.90
20648;DHT22;10483;44.646;10.924;2022-07-06T03:40:03;27.20;99.90
20648;DHT22;10483;44.646;10.924;2022-07-06T03:42:30;27.20;99.90
20648;DHT22;10483;44.646;10.924;2022-07-06T03:44:56;27.20;99.90
20648;DHT22;10483;44.646;10.924;2022-07-06T03:47:23;27.20;99.90
20648;DHT22;10483;44.646;10.924;2022-07-06T03:49:50;27.20;99.90
20648;DHT22;10483;44.646;10.924;2022-07-06T03:52:16;27.20;99.90
20648;DHT22;10483;44.646;10.924;2022-07-06T03:54:43;27.10;99.90
20648;DHT22;10483;44.646;10.924;2022-07-06T03:57:09;27.00;99.90
20648;DHT22;10483;44.646;10.924;2022-07-06T03:59:38;27.00;99.90
20648;DHT22;10483;44.646;10.924;2022-07-06T04:02:05;27.00;99.90
20648;DHT22;10483;44.646;10.924;2022-07-06T04:04:34;26.90;99.90
20648;DHT22;10483;44.646;10.924;2022-07-06T04:07:00;26.90;99.90
20648;DHT22;10483;44.646;10.924;2022-07-06T04:09:27;27.00;99.90
20648;DHT22;10483;44.646;10.924;2022-07-06T04:11:54;26.90;99.90
20648;DHT22;10483;44.646;10.924;2022-07-06T04:14:21;27.00;99.90
20648;DHT22;10483;44.646;10.924;2022-07-06T04:16:47;27.00;99.90
20648;DHT22;10483;44.646;10.924;2022-07-06T04:19:15;27.00;99.90
20648;DHT22;10483;44.646;10.924;2022-07-06T04:21:42;27.00;99.90
20648;DHT22;10483;44.646;10.924;2022-07-06T04:24:09;27.00;99.90
20648;DHT22;10483;44.646;10.924;2022-07-06T04:26:36;27.00;99.90
20648;DHT22;10483;44.646;10.924;2022-07-06T04:29:03;27.00;99.90
20648;DHT22;10483;44.646;10.924;2022-07-06T04:31:29;27.00;99.90
20648;DHT22;10483;44.646;10.924;2022-07-06T04:33:56;27.10;99.90
20648;DHT22;10483;44.646;10.924;2022-07-06T04:36:23;27.10;99.90
20648;DHT22;10483;44.646;10.924;2022-07-06T04:38:49;27.00;99.90
20648;DHT22;10483;44.646;10.924;2022-07-06T04:41:16;27.00;99.90
20648;DHT22;10483;44.646;10.924;2022-07-06T04:43:43;27.00;99.90
20648;DHT22;10483;44.646;10.924;2022-07-06T04:46:09;26.90;99.90
20648;DHT22;10483;44.646;10.924;2022-07-06T04:48:36;26.90;99.90
20648;DHT22;10483;44.646;10.924;2022-07-06T04:51:05;26.80;99.90
20648;DHT22;10483;44.646;10.924;2022-07-06T04:53:31;26.80;99.90
20648;DHT22;10483;44.646;10.924;2022-07-06T04:55:58;26.80;99.90
20648;DHT22;10483;44.646;10.924;2022-07-06T04:58:25;26.80;99.90
20648;DHT22;10483;44.646;10.924;2022-07-06T05:00:51;26.80;99.90
20648;DHT22;10483;44.646;10.924;2022-07-06T05:03:19;26.80;99.90
20648;DHT22;10483;44.646;10.924;2022-07-06T05:05:46;26.80;99.90
20648;DHT22;10483;44.646;10.924;2022-07-06T05:08:13;26.80;99.90
20648;DHT22;10483;44.646;10.924;2022-07-06T05:10:39;26.80;99.90
20648;DHT22;10483;44.646;10.924;2022-07-06T05:13:06;26.80;99.90
20648;DHT22;10483;44.646;10.924;2022-07-06T05:15:32;26.80;99.90
20648;DHT22;10483;44.646;10.924;2022-07-06T05:17:59;26.90;99.90
20648;DHT22;10483;44.646;10.924;2022-07-06T05:20:26;26.90;99.90
20648;DHT22;10483;44.646;10.924;2022-07-06T05:22:52;26.90;99.90
20648;DHT22;10483;44.646;10.924;2022-07-06T05:25:19;26.90;99.90
20648;DHT22;10483;44.646;10.924;2022-07-06T05:27:45;26.90;99.90
20648;DHT22;10483;44.646;10.924;2022-07-06T05:30:12;26.90;99.90
20648;DHT22;10483;44.646;10.924;2022-07-06T05:32:41;26.90;99.90
20648;DHT22;10483;44.646;10.924;2022-07-06T05:35:08;26.80;99.90
20648;DHT22;10483;44.646;10.924;2022-07-06T05:37:35;26.80;99.90
20648;DHT22;10483;44.646;10.924;2022-07-06T05:40:01;26.80;99.90
20648;DHT22;10483;44.646;10.924;2022-07-06T05:42:28;26.70;99.90
20648;DHT22;10483;44.646;10.924;2022-07-06T05:44:55;26.70;99.90
20648;DHT22;10483;44.646;10.924;2022-07-06T05:47:22;26.70;99.90
20648;DHT22;10483;44.646;10.924;2022-07-06T05:49:55;26.70;99.90
20648;DHT22;10483;44.646;10.924;2022-07-06T05:52:27;26.70;99.90
20648;DHT22;10483;44.646;10.924;2022-07-06T05:54:53;26.80;99.90
20648;DHT22;10483;44.646;10.924;2022-07-06T05:57:20;26.70;99.90
20648;DHT22;10483;44.646;10.924;2022-07-06T05:59:47;26.80;99.90
20648;DHT22;10483;44.646;10.924;2022-07-06T06:02:13;26.80;99.90
20648;DHT22;10483;44.646;10.924;2022-07-06T06:04:40;26.80;99.90
20648;DHT22;10483;44.646;10.924;2022-07-06T06:07:07;26.90;99.90
20648;DHT22;10483;44.646;10.924;2022-07-06T06:09:33;27.00;99.90
20648;DHT22;10483;44.646;10.924;2022-07-06T06:12:00;27.30;99.90
20648;DHT22;10483;44.646;10.924;2022-07-06T06:14:26;27.50;99.90
20648;DHT22;10483;44.646;10.924;2022-07-06T06:16:53;27.60;99.90
20648;DHT22;10483;44.646;10.924;2022-07-06T06:19:20;27.70;99.90
20648;DHT22;10483;44.646;10.924;2022-07-06T06:21:46;27.90;99.90
20648;DHT22;10483;44.646;10.924;2022-07-06T06:24:13;27.90;99.90
20648;DHT22;10483;44.646;10.924;2022-07-06T06:26:39;27.80;99.90
20648;DHT22;10483;44.646;10.924;2022-07-06T06:29:06;27.60;99.90
20648;DHT22;10483;44.646;10.924;2022-07-06T06:31:33;27.50;99.90
20648;DHT22;10483;44.646;10.924;2022-07-06T06:33:59;27.50;99.90
20648;DHT22;10483;44.646;10.924;2022-07-06T06:36:26;27.40;99.90
20648;DHT22;10483;44.646;10.924;2022-07-06T06:38:53;27.40;99.90
20648;DHT22;10483;44.646;10.924;2022-07-06T06:41:19;27.30;99.90
20648;DHT22;10483;44.646;10.924;2022-07-06T06:43:46;27.40;99.90
20648;DHT22;10483;44.646;10.924;2022-07-06T06:46:13;27.40;99.90
20648;DHT22;10483;44.646;10.924;2022-07-06T06:48:40;27.50;99.90
20648;DHT22;10483;44.646;10.924;2022-07-06T06:51:06;27.50;99.90
20648;DHT22;10483;44.646;10.924;2022-07-06T06:53:33;27.60;99.90
20648;DHT22;10483;44.646;10.924;2022-07-06T06:56:00;27.60;99.90
20648;DHT22;10483;44.646;10.924;2022-07-06T06:58:26;27.60;99.90
20648;DHT22;10483;44.646;10.924;2022-07-06T07:00:53;27.60;99.90
20648;DHT22;10483;44.646;10.924;2022-07-06T07:03:21;27.60;99.90
20648;DHT22;10483;44.646;10.924;2022-07-06T07:05:47;27.60;99.90
20648;DHT22;10483;44.646;10.924;2022-07-06T07:08:14;27.60;99.90
20648;DHT22;10483;44.646;10.924;2022-07-06T07:10:41;27.60;99.90
20648;DHT22;10483;44.646;10.924;2022-07-06T07:13:08;27.60;99.90
20648;DHT22;10483;44.646;10.924;2022-07-06T07:15:35;27.60;99.90
20648;DHT22;10483;44.646;10.924;2022-07-06T07:18:01;27.60;99.90
20648;DHT22;10483;44.646;10.924;2022-07-06T07:20:28;27.80;99.90
20648;DHT22;10483;44.646;10.924;2022-07-06T07:22:56;27.80;99.90
20648;DHT22;10483;44.646;10.924;2022-07-06T07:25:23;27.80;99.90
20648;DHT22;10483;44.646;10.924;2022-07-06T07:27:50;27.80;99.90
20648;DHT22;10483;44.646;10.924;2022-07-06T07:30:17;27.80;99.90
20648;DHT22;10483;44.646;10.924;2022-07-06T07:32:44;27.80;99.90
20648;DHT22;10483;44.646;10.924;2022-07-06T07:35:11;27.90;99.90
20648;DHT22;10483;44.646;10.924;2022-07-06T07:37:37;27.90;99.90
20648;DHT22;10483;44.646;10.924;2022-07-06T07:40:05;27.90;99.90
20648;DHT22;10483;44.646;10.924;2022-07-06T07:42:32;28.00;99.90
20648;DHT22;10483;44.646;10.924;2022-07-06T07:44:59;28.00;99.90
20648;DHT22;10483;44.646;10.924;2022-07-06T07:47:26;28.00;99.90
20648;DHT22;10483;44.646;10.924;2022-07-06T07:49:52;28.10;99.90
20648;DHT22;10483;44.646;10.924;2022-07-06T07:52:19;28.00;99.90
20648;DHT22;10483;44.646;10.924;2022-07-06T07:54:45;28.10;99.90
20648;DHT22;10483;44.646;10.924;2022-07-06T07:57:12;28.10;99.90
20648;DHT22;10483;44.646;10.924;2022-07-06T07:59:39;28.10;99.90
20648;DHT22;10483;44.646;10.924;2022-07-06T08:02:06;28.20;99.90
20648;DHT22;10483;44.646;10.924;2022-07-06T08:04:33;28.20;99.90
20648;DHT22;10483;44.646;10.924;2022-07-06T08:06:59;28.20;99.90
20648;DHT22;10483;44.646;10.924;2022-07-06T08:09:26;28.20;99.90
20648;DHT22;10483;44.646;10.924;2022-07-06T08:11:53;28.20;99.90
20648;DHT22;10483;44.646;10.924;2022-07-06T08:14:19;28.20;99.90
20648;DHT22;10483;44.646;10.924;2022-07-06T08:16:46;28.20;99.90
20648;DHT22;10483;44.646;10.924;2022-07-06T08:19:13;28.30;99.90
20648;DHT22;10483;44.646;10.924;2022-07-06T08:21:41;28.30;99.90
20648;DHT22;10483;44.646;10.924;2022-07-06T08:24:08;28.30;99.90
20648;DHT22;10483;44.646;10.924;2022-07-06T08:26:35;28.30;99.90
20648;DHT22;10483;44.646;10.924;2022-07-06T08:29:03;28.30;99.90
20648;DHT22;10483;44.646;10.924;2022-07-06T08:31:30;28.30;99.90
20648;DHT22;10483;44.646;10.924;2022-07-06T08:33:57;28.40;99.90
20648;DHT22;10483;44.646;10.924;2022-07-06T08:36:25;28.40;99.90
20648;DHT22;10483;44.646;10.924;2022-07-06T08:38:51;28.50;99.90
20648;DHT22;10483;44.646;10.924;2022-07-06T08:41:21;28.50;99.90
20648;DHT22;10483;44.646;10.924;2022-07-06T08:43:48;28.50;99.90
20648;DHT22;10483;44.646;10.924;2022-07-06T08:46:16;28.60;99.90
20648;DHT22;10483;44.646;10.924;2022-07-06T08:48:43;28.60;99.90
20648;DHT22;10483;44.646;10.924;2022-07-06T08:51:12;28.70;99.90
20648;DHT22;10483;44.646;10.924;2022-07-06T08:53:41;28.80;99.90
20648;DHT22;10483;44.646;10.924;2022-07-06T08:56:08;28.80;99.90
20648;DHT22;10483;44.646;10.924;2022-07-06T08:58:35;28.90;99.90
20648;DHT22;10483;44.646;10.924;2022-07-06T09:01:02;28.90;99.90
20648;DHT22;10483;44.646;10.924;2022-07-06T09:03:29;28.90;99.90
20648;DHT22;10483;44.646;10.924;2022-07-06T09:05:59;29.00;99.90
20648;DHT22;10483;44.646;10.924;2022-07-06T09:08:27;29.00;99.90
20648;DHT22;10483;44.646;10.924;2022-07-06T09:10:54;29.10;99.90
20648;DHT22;10483;44.646;10.924;2022-07-06T09:13:21;29.10;99.90
20648;DHT22;10483;44.646;10.924;2022-07-06T09:15:47;29.10;99.90
20648;DHT22;10483;44.646;10.924;2022-07-06T09:18:14;29.20;99.90
20648;DHT22;10483;44.646;10.924;2022-07-06T09:20:41;29.20;99.90
20648;DHT22;10483;44.646;10.924;2022-07-06T09:23:09;29.20;99.90
20648;DHT22;10483;44.646;10.924;2022-07-06T09:25:36;29.20;99.90
20648;DHT22;10483;44.646;10.924;2022-07-06T09:28:04;29.30;99.90
20648;DHT22;10483;44.646;10.924;2022-07-06T09:30:32;29.30;99.90
20648;DHT22;10483;44.646;10.924;2022-07-06T09:32:59;29.30;99.90
20648;DHT22;10483;44.646;10.924;2022-07-06T09:35:29;29.40;99.90
20648;DHT22;10483;44.646;10.924;2022-07-06T09:38:15;29.50;99.90
20648;DHT22;10483;44.646;10.924;2022-07-06T09:40:43;29.50;99.90
20648;DHT22;10483;44.646;10.924;2022-07-06T09:43:16;29.50;99.90
20648;DHT22;10483;44.646;10.924;2022-07-06T09:45:50;29.60;99.90
20648;DHT22;10483;44.646;10.924;2022-07-06T09:48:18;29.70;99.90
20648;DHT22;10483;44.646;10.924;2022-07-06T09:50:53;29.70;99.90
20648;DHT22;10483;44.646;10.924;2022-07-06T09:53:23;29.80;99.90
20648;DHT22;10483;44.646;10.924;2022-07-06T09:55:52;29.80;99.90
20648;DHT22;10483;44.646;10.924;2022-07-06T09:58:20;29.90;99.90
20648;DHT22;10483;44.646;10.924;2022-07-06T10:00:48;29.90;99.90
20648;DHT22;10483;44.646;10.924;2022-07-06T10:03:15;30.00;99.90
20648;DHT22;10483;44.646;10.924;2022-07-06T10:05:44;30.00;99.90
20648;DHT22;10483;44.646;10.924;2022-07-06T10:08:14;30.10;99.90
20648;DHT22;10483;44.646;10.924;2022-07-06T10:10:42;30.10;99.90
20648;DHT22;10483;44.646;10.924;2022-07-06T10:13:10;30.20;99.90
20648;DHT22;10483;44.646;10.924;2022-07-06T10:15:38;30.30;99.90
20648;DHT22;10483;44.646;10.924;2022-07-06T10:18:08;30.20;99.90
20648;DHT22;10483;44.646;10.924;2022-07-06T10:20:37;30.30;99.90
20648;DHT22;10483;44.646;10.924;2022-07-06T10:23:06;30.50;99.90
20648;DHT22;10483;44.646;10.924;2022-07-06T10:25:35;30.50;99.90
20648;DHT22;10483;44.646;10.924;2022-07-06T10:28:02;30.60;99.90
20648;DHT22;10483;44.646;10.924;2022-07-06T10:30:30;30.70;99.90
20648;DHT22;10483;44.646;10.924;2022-07-06T10:32:59;30.90;99.80
20648;DHT22;10483;44.646;10.924;2022-07-06T10:35:26;31.00;99.90
20648;DHT22;10483;44.646;10.924;2022-07-06T10:38:04;31.10;99.90
20648;DHT22;10483;44.646;10.924;2022-07-06T10:40:34;31.20;99.60
20648;DHT22;10483;44.646;10.924;2022-07-06T10:43:09;31.20;99.90
20648;DHT22;10483;44.646;10.924;2022-07-06T10:45:51;31.30;99.80
20648;DHT22;10483;44.646;10.924;2022-07-06T10:48:19;31.30;99.80
20648;DHT22;10483;44.646;10.924;2022-07-06T10:50:52;31.30;99.90
20648;DHT22;10483;44.646;10.924;2022-07-06T10:53:24;31.40;99.90
20648;DHT22;10483;44.646;10.924;2022-07-06T10:55:52;31.30;99.90
20648;DHT22;10483;44.646;10.924;2022-07-06T11:00:58;31.40;99.90
20648;DHT22;10483;44.646;10.924;2022-07-06T11:03:48;31.40;99.90
20648;DHT22;10483;44.646;10.924;2022-07-06T11:06:21;31.30;99.90
20648;DHT22;10483;44.646;10.924;2022-07-06T11:08:52;31.50;99.80
20648;DHT22;10483;44.646;10.924;2022-07-06T11:11:25;31.70;99.90
20648;DHT22;10483;44.646;10.924;2022-07-06T11:13:56;31.60;99.80
20648;DHT22;10483;44.646;10.924;2022-07-06T11:16:25;31.80;99.20
20648;DHT22;10483;44.646;10.924;2022-07-06T11:19:11;31.70;99.90
20648;DHT22;10483;44.646;10.924;2022-07-06T11:21:47;31.80;99.80
20648;DHT22;10483;44.646;10.924;2022-07-06T11:24:19;31.90;98.30
20648;DHT22;10483;44.646;10.924;2022-07-06T11:26:47;32.00;97.90
20648;DHT22;10483;44.646;10.924;2022-07-06T11:29:15;31.90;98.80
20648;DHT22;10483;44.646;10.924;2022-07-06T11:31:45;31.90;98.20
20648;DHT22;10483;44.646;10.924;2022-07-06T11:34:17;31.80;98.80
20648;DHT22;10483;44.646;10.924;2022-07-06T11:36:42;31.80;99.30
20648;DHT22;10483;44.646;10.924;2022-07-06T11:39:09;31.70;99.90
20648;DHT22;10483;44.646;10.924;2022-07-06T11:41:36;31.60;99.90
20648;DHT22;10483;44.646;10.924;2022-07-06T11:44:03;31.60;99.90
20648;DHT22;10483;44.646;10.924;2022-07-06T11:46:31;31.40;99.90
20648;DHT22;10483;44.646;10.924;2022-07-06T11:49:00;31.40;99.90
20648;DHT22;10483;44.646;10.924;2022-07-06T11:51:29;31.40;99.90
20648;DHT22;10483;44.646;10.924;2022-07-06T11:53:58;31.40;99.70
20648;DHT22;10483;44.646;10.924;2022-07-06T11:56:29;31.50;98.00
20648;DHT22;10483;44.646;10.924;2022-07-06T11:58:57;31.50;99.90
20648;DHT22;10483;44.646;10.924;2022-07-06T12:01:26;31.40;99.30
20648;DHT22;10483;44.646;10.924;2022-07-06T12:03:58;31.50;98.40
20648;DHT22;10483;44.646;10.924;2022-07-06T12:06:26;31.50;97.50
20648;DHT22;10483;44.646;10.924;2022-07-06T12:08:55;31.60;97.80
20648;DHT22;10483;44.646;10.924;2022-07-06T12:11:27;31.50;99.70
20648;DHT22;10483;44.646;10.924;2022-07-06T12:13:55;31.30;99.90
20648;DHT22;10483;44.646;10.924;2022-07-06T12:16:30;31.40;99.00
20648;DHT22;10483;44.646;10.924;2022-07-06T12:18:57;31.40;99.50
20648;DHT22;10483;44.646;10.924;2022-07-06T12:21:24;31.40;99.60
20648;DHT22;10483;44.646;10.924;2022-07-06T12:23:52;31.30;99.90
20648;DHT22;10483;44.646;10.924;2022-07-06T12:26:21;31.30;99.90
20648;DHT22;10483;44.646;10.924;2022-07-06T12:28:59;31.30;99.00
20648;DHT22;10483;44.646;10.924;2022-07-06T12:31:35;31.30;99.30
20648;DHT22;10483;44.646;10.924;2022-07-06T12:34:03;31.30;98.20
20648;DHT22;10483;44.646;10.924;2022-07-06T12:36:31;31.40;99.10
20648;DHT22;10483;44.646;10.924;2022-07-06T12:38:58;31.40;98.00
20648;DHT22;10483;44.646;10.924;2022-07-06T12:41:30;31.40;98.80
20648;DHT22;10483;44.646;10.924;2022-07-06T12:44:02;31.30;99.90
20648;DHT22;10483;44.646;10.924;2022-07-06T12:46:38;31.20;99.90
20648;DHT22;10483;44.646;10.924;2022-07-06T12:49:14;31.10;99.90
20648;DHT22;10483;44.646;10.924;2022-07-06T12:51:52;31.10;99.90
20648;DHT22;10483;44.646;10.924;2022-07-06T12:54:20;31.10;99.90
20648;DHT22;10483;44.646;10.924;2022-07-06T12:56:57;31.00;99.90
20648;DHT22;10483;44.646;10.924;2022-07-06T12:59:24;31.10;98.80
20648;DHT22;10483;44.646;10.924;2022-07-06T13:01:52;31.10;98.00
20648;DHT22;10483;44.646;10.924;2022-07-06T13:04:24;31.20;97.00
20648;DHT22;10483;44.646;10.924;2022-07-06T13:06:51;31.20;98.60
20648;DHT22;10483;44.646;10.924;2022-07-06T13:09:18;31.20;97.80
20648;DHT22;10483;44.646;10.924;2022-07-06T13:11:46;31.20;99.20
20648;DHT22;10483;44.646;10.924;2022-07-06T13:14:15;31.20;98.00
20648;DHT22;10483;44.646;10.924;2022-07-06T13:16:43;31.20;96.50
20648;DHT22;10483;44.646;10.924;2022-07-06T13:19:10;31.20;96.30
20648;DHT22;10483;44.646;10.924;2022-07-06T13:21:37;31.20;95.50
20648;DHT22;10483;44.646;10.924;2022-07-06T13:24:04;31.30;95.20
20648;DHT22;10483;44.646;10.924;2022-07-06T13:26:32;31.30;98.30
20648;DHT22;10483;44.646;10.924;2022-07-06T13:29:01;31.20;97.70
20648;DHT22;10483;44.646;10.924;2022-07-06T13:31:27;31.20;96.00
20648;DHT22;10483;44.646;10.924;2022-07-06T13:33:54;31.30;97.60
20648;DHT22;10483;44.646;10.924;2022-07-06T13:36:23;31.20;98.30
20648;DHT22;10483;44.646;10.924;2022-07-06T13:38:49;31.20;98.20
20648;DHT22;10483;44.646;10.924;2022-07-06T13:41:16;31.30;96.20
20648;DHT22;10483;44.646;10.924;2022-07-06T13:43:43;31.30;95.90
20648;DHT22;10483;44.646;10.924;2022-07-06T13:46:09;31.30;97.20
20648;DHT22;10483;44.646;10.924;2022-07-06T13:48:37;31.30;97.00
20648;DHT22;10483;44.646;10.924;2022-07-06T13:51:03;31.30;95.20
20648;DHT22;10483;44.646;10.924;2022-07-06T13:53:30;31.30;96.40
20648;DHT22;10483;44.646;10.924;2022-07-06T13:55:58;31.30;95.90
20648;DHT22;10483;44.646;10.924;2022-07-06T13:58:24;31.40;95.80
20648;DHT22;10483;44.646;10.924;2022-07-06T14:00:51;31.40;95.50
20648;DHT22;10483;44.646;10.924;2022-07-06T14:03:17;31.30;95.60
20648;DHT22;10483;44.646;10.924;2022-07-06T14:05:44;31.40;95.10
20648;DHT22;10483;44.646;10.924;2022-07-06T14:08:11;31.40;95.80
20648;DHT22;10483;44.646;10.924;2022-07-06T14:10:38;31.40;96.00
20648;DHT22;10483;44.646;10.924;2022-07-06T14:13:05;31.30;96.10
20648;DHT22;10483;44.646;10.924;2022-07-06T14:15:32;31.30;97.90
20648;DHT22;10483;44.646;10.924;2022-07-06T14:18:00;31.30;95.40
20648;DHT22;10483;44.646;10.924;2022-07-06T14:20:26;31.40;95.20
20648;DHT22;10483;44.646;10.924;2022-07-06T14:22:53;31.30;95.50
20648;DHT22;10483;44.646;10.924;2022-07-06T14:25:19;31.30;95.20
20648;DHT22;10483;44.646;10.924;2022-07-06T14:27:46;31.30;95.00
20648;DHT22;10483;44.646;10.924;2022-07-06T14:30:13;31.30;95.50
20648;DHT22;10483;44.646;10.924;2022-07-06T14:32:39;31.30;94.60
20648;DHT22;10483;44.646;10.924;2022-07-06T14:35:06;31.40;94.50
20648;DHT22;10483;44.646;10.924;2022-07-06T14:37:33;31.40;94.60
20648;DHT22;10483;44.646;10.924;2022-07-06T14:40:00;31.40;94.60
20648;DHT22;10483;44.646;10.924;2022-07-06T14:42:26;31.40;94.50
20648;DHT22;10483;44.646;10.924;2022-07-06T14:44:53;31.40;94.90
20648;DHT22;10483;44.646;10.924;2022-07-06T14:47:19;31.30;94.60
20648;DHT22;10483;44.646;10.924;2022-07-06T14:49:46;31.30;94.40
20648;DHT22;10483;44.646;10.924;2022-07-06T14:52:13;31.30;94.30
20648;DHT22;10483;44.646;10.924;2022-07-06T14:54:40;31.30;95.10
20648;DHT22;10483;44.646;10.924;2022-07-06T14:57:06;31.30;94.60
20648;DHT22;10483;44.646;10.924;2022-07-06T14:59:34;31.30;94.50
20648;DHT22;10483;44.646;10.924;2022-07-06T15:02:02;31.30;94.90
20648;DHT22;10483;44.646;10.924;2022-07-06T15:04:29;31.20;94.60
20648;DHT22;10483;44.646;10.924;2022-07-06T15:06:55;31.30;94.50
20648;DHT22;10483;44.646;10.924;2022-07-06T15:09:22;31.20;94.30
20648;DHT22;10483;44.646;10.924;2022-07-06T15:11:50;31.20;94.30
20648;DHT22;10483;44.646;10.924;2022-07-06T15:14:17;31.20;94.40
20648;DHT22;10483;44.646;10.924;2022-07-06T15:16:44;31.20;95.10
20648;DHT22;10483;44.646;10.924;2022-07-06T15:19:11;31.20;94.40
20648;DHT22;10483;44.646;10.924;2022-07-06T15:21:37;31.20;94.90